createdAt,value
2022-12-27T00:02:22.701Z,99719.16
2022-12-27T00:04:50.603Z,99716.66
2022-12-27T00:07:19.799Z,99702.00
2022-12-27T00:09:47.810Z,99702.28
2022-12-27T00:12:15.549Z,99694.66
2022-12-27T00:14:43.415Z,99674.91
2022-12-27T00:17:11.277Z,99702.47
2022-12-27T00:19:39.011Z,99702.38
2022-12-27T00:22:06.788Z,99675.00
2022-12-27T00:24:36.268Z,99700.03
2022-12-27T00:27:04.146Z,99699.00
2022-12-27T00:29:31.948Z,99690.84
2022-12-27T00:32:00.116Z,99688.22
2022-12-27T00:34:28.060Z,99687.25
2022-12-27T00:36:55.907Z,99680.28
2022-12-27T00:39:23.894Z,99680.44
2022-12-27T00:41:52.966Z,99674.25
2022-12-27T00:44:20.725Z,99667.63
2022-12-27T00:46:48.638Z,99657.34
2022-12-27T00:49:16.449Z,99659.06
2022-12-27T00:51:44.156Z,99653.97
2022-12-27T00:54:12.359Z,99643.31
2022-12-27T00:56:40.071Z,99649.97
2022-12-27T00:59:12.049Z,99645.44
2022-12-27T01:01:40.978Z,99642.00
2022-12-27T01:04:09.208Z,99637.06
2022-12-27T01:06:37.050Z,99642.31
2022-12-27T01:09:05.653Z,99632.88
2022-12-27T01:11:34.457Z,99639.41
2022-12-27T01:14:03.858Z,99637.75
2022-12-27T01:16:33.767Z,99585.63
2022-12-27T01:19:01.820Z,99634.22
2022-12-27T01:21:30.827Z,99631.94
2022-12-27T01:23:59.655Z,99626.94
2022-12-27T01:26:27.618Z,99625.03
2022-12-27T01:28:55.578Z,99624.81
2022-12-27T01:31:25.252Z,99585.41
2022-12-27T01:33:57.370Z,99626.78
2022-12-27T01:36:27.062Z,99591.75
2022-12-27T01:38:55.366Z,99613.38
2022-12-27T01:41:42.376Z,99609.06
2022-12-27T01:44:53.327Z,99602.88
2022-12-27T01:47:36.220Z,99601.06
2022-12-27T01:50:17.264Z,99607.47
2022-12-27T01:52:51.386Z,99594.50
2022-12-27T01:55:26.310Z,99594.56
2022-12-27T01:57:58.618Z,99529.06
2022-12-27T02:00:26.533Z,99538.56
2022-12-27T02:02:54.509Z,99578.44
2022-12-27T02:05:26.060Z,99575.91
2022-12-27T02:08:17.353Z,99573.34
2022-12-27T02:10:45.280Z,99572.41
2022-12-27T02:13:14.822Z,99568.16
2022-12-27T02:15:42.567Z,99576.78
2022-12-27T02:18:10.644Z,99570.84
2022-12-27T02:20:58.278Z,99568.97
2022-12-27T02:24:03.695Z,99557.03
2022-12-27T02:26:54.600Z,99557.06
2022-12-27T02:29:48.196Z,99556.34
2022-12-27T02:32:20.746Z,99550.72
2022-12-27T02:34:57.995Z,99554.03
2022-12-27T02:37:31.537Z,99552.25
2022-12-27T02:40:22.656Z,99556.53
2022-12-27T02:43:09.341Z,99564.00
2022-12-27T02:46:01.275Z,99554.75
2022-12-27T02:48:46.690Z,99556.47
2022-12-27T02:51:46.093Z,99553.31
2022-12-27T02:54:32.627Z,99548.09
2022-12-27T02:57:11.028Z,99485.47
2022-12-27T03:00:11.993Z,99544.50
2022-12-27T03:03:14.397Z,99539.97
2022-12-27T03:06:10.838Z,99538.69
2022-12-27T03:08:43.962Z,99535.81
2022-12-27T03:11:29.195Z,99537.25
2022-12-27T03:14:30.633Z,99536.63
2022-12-27T03:17:03.327Z,99528.19
2022-12-27T03:19:57.005Z,99536.81
2022-12-27T03:22:46.711Z,99535.97
2022-12-27T03:25:31.422Z,99529.88
2022-12-27T03:28:20.543Z,99530.00
2022-12-27T03:31:11.061Z,99538.28
2022-12-27T03:33:40.684Z,99533.25
2022-12-27T03:36:32.157Z,99496.78
2022-12-27T03:39:23.888Z,99543.22
2022-12-27T03:42:12.904Z,99527.00
2022-12-27T03:44:41.366Z,99530.72
2022-12-27T03:47:22.207Z,99528.88
2022-12-27T03:49:54.882Z,99503.47
2022-12-27T03:52:28.450Z,99536.28
2022-12-27T03:54:57.111Z,99532.69
2022-12-27T03:57:26.946Z,99547.03
2022-12-27T03:59:54.863Z,99467.44
2022-12-27T04:02:22.904Z,99545.09
2022-12-27T04:04:51.200Z,99537.63
2022-12-27T04:07:19.179Z,99548.63
2022-12-27T04:10:05.739Z,99546.81
2022-12-27T04:12:51.339Z,99540.84
2022-12-27T04:15:36.422Z,99534.16
2022-12-27T04:18:21.706Z,99512.47
2022-12-27T04:21:07.429Z,99541.16
2022-12-27T04:23:53.042Z,99538.16
2022-12-27T04:26:39.614Z,99544.22
2022-12-27T04:29:25.017Z,99510.28
2022-12-27T04:32:10.100Z,99551.16
2022-12-27T04:34:44.388Z,99558.00
2022-12-27T04:37:14.697Z,99546.63
2022-12-27T04:39:42.452Z,99548.31
2022-12-27T04:42:29.281Z,99541.38
2022-12-27T04:45:15.681Z,99540.44
2022-12-27T04:48:01.379Z,99547.03
2022-12-27T04:50:48.647Z,99562.44
2022-12-27T04:53:35.610Z,99553.25
2022-12-27T04:56:04.634Z,99545.78
2022-12-27T04:58:34.327Z,99554.09
2022-12-27T05:01:22.507Z,99542.75
2022-12-27T05:03:54.319Z,99544.53
2022-12-27T05:06:22.090Z,99541.03
2022-12-27T05:09:07.679Z,99495.94
2022-12-27T05:11:52.843Z,99548.38
2022-12-27T05:14:22.132Z,99551.09
2022-12-27T05:16:49.925Z,99552.47
2022-12-27T05:19:17.663Z,99537.09
2022-12-27T05:22:06.845Z,99552.22
2022-12-27T05:24:51.955Z,99544.88
2022-12-27T05:27:19.915Z,99546.41
2022-12-27T05:29:49.142Z,99550.31
2022-12-27T05:32:16.875Z,99554.91
2022-12-27T05:34:44.747Z,99557.56
2022-12-27T05:37:12.720Z,99564.97
2022-12-27T05:39:40.524Z,99554.81
2022-12-27T05:42:08.354Z,99558.53
2022-12-27T05:44:36.293Z,99557.75
2022-12-27T05:47:05.532Z,99558.66
2022-12-27T05:49:33.391Z,99544.16
2022-12-27T05:52:01.325Z,99549.09
2022-12-27T05:54:29.056Z,99551.00
2022-12-27T05:56:56.976Z,99548.13
2022-12-27T05:59:24.908Z,99556.44
2022-12-27T06:01:52.810Z,99556.28
2022-12-27T06:04:22.128Z,99570.50
2022-12-27T06:06:49.945Z,99564.00
2022-12-27T06:09:17.766Z,99562.94
2022-12-27T06:11:45.601Z,99576.19
2022-12-27T06:14:13.455Z,99566.78
2022-12-27T06:16:41.249Z,99559.09
2022-12-27T06:19:09.056Z,99564.13
2022-12-27T06:21:38.314Z,99560.81
2022-12-27T06:24:06.749Z,99559.31
2022-12-27T06:26:34.564Z,99562.94
2022-12-27T06:29:02.459Z,99567.63
2022-12-27T06:31:30.381Z,99553.00
2022-12-27T06:33:58.641Z,99558.34
2022-12-27T06:36:29.599Z,99564.41
2022-12-27T06:38:59.419Z,99577.13
2022-12-27T06:41:27.482Z,99541.78
2022-12-27T06:43:56.754Z,99573.50
2022-12-27T06:46:25.507Z,99579.06
2022-12-27T06:48:53.648Z,99583.47
2022-12-27T06:51:22.309Z,99581.88
2022-12-27T06:53:51.007Z,99536.84
2022-12-27T06:56:21.909Z,99589.59
2022-12-27T06:58:51.433Z,99595.50
2022-12-27T07:01:21.597Z,99590.84
2022-12-27T07:03:51.252Z,99588.63
2022-12-27T07:06:19.539Z,99604.66
2022-12-27T07:08:47.431Z,99604.13
2022-12-27T07:11:16.610Z,99610.44
2022-12-27T07:13:47.366Z,99612.88
2022-12-27T07:16:17.632Z,99616.47
2022-12-27T07:18:45.657Z,99618.28
2022-12-27T07:21:15.486Z,99622.25
2022-12-27T07:23:43.814Z,99628.00
2022-12-27T07:26:13.687Z,99630.75
2022-12-27T07:28:41.673Z,99636.53
2022-12-27T07:31:12.910Z,99633.28
2022-12-27T07:33:41.360Z,99629.56
2022-12-27T07:36:12.577Z,99634.75
2022-12-27T07:38:40.458Z,99644.31
2022-12-27T07:41:08.290Z,99645.75
2022-12-27T07:43:36.978Z,99617.41
2022-12-27T07:46:06.285Z,99638.09
2022-12-27T07:48:36.171Z,99628.25
2022-12-27T07:51:04.798Z,99649.31
2022-12-27T07:53:32.887Z,99647.00
2022-12-27T07:56:00.983Z,99643.56
2022-12-27T07:58:28.687Z,99645.06
2022-12-27T08:00:56.568Z,99638.00
2022-12-27T08:03:24.472Z,99651.59
2022-12-27T08:05:53.626Z,99650.50
2022-12-27T08:08:26.191Z,99632.53
2022-12-27T08:10:53.989Z,99644.28
2022-12-27T08:13:21.675Z,99652.50
2022-12-27T08:15:49.446Z,99599.81
2022-12-27T08:18:17.332Z,99646.88
2022-12-27T08:20:45.024Z,99661.13
2022-12-27T08:23:14.100Z,99646.50
2022-12-27T08:25:48.481Z,99657.47
2022-12-27T08:28:19.004Z,99650.44
2022-12-27T08:30:48.029Z,99652.75
2022-12-27T08:33:16.324Z,99644.69
2022-12-27T08:35:54.277Z,99645.41
2022-12-27T08:38:23.900Z,99647.94
2022-12-27T08:40:51.751Z,99643.50
2022-12-27T08:43:19.686Z,99641.25
2022-12-27T08:45:47.565Z,99647.34
2022-12-27T08:48:15.717Z,99634.94
2022-12-27T08:50:43.591Z,99645.47
2022-12-27T08:53:11.971Z,99653.28
2022-12-27T08:55:41.072Z,99649.88
2022-12-27T08:58:15.741Z,99653.31
2022-12-27T09:00:43.970Z,99652.38
2022-12-27T09:03:12.013Z,99621.34
2022-12-27T09:05:41.941Z,99661.56
2022-12-27T09:08:10.451Z,99666.41
2022-12-27T09:10:38.451Z,99628.25
2022-12-27T09:13:07.580Z,99655.63
2022-12-27T09:15:35.394Z,99610.50
2022-12-27T09:18:04.100Z,99653.28
2022-12-27T09:20:31.821Z,99654.16
2022-12-27T09:23:00.198Z,99651.03
2022-12-27T09:25:28.079Z,99658.06
2022-12-27T09:27:56.007Z,99660.66
2022-12-27T09:30:25.067Z,99658.09
2022-12-27T09:32:52.967Z,99640.44
2022-12-27T09:35:20.691Z,99670.00
2022-12-27T09:37:48.533Z,99661.38
2022-12-27T09:40:20.613Z,99663.09
2022-12-27T09:43:11.796Z,99667.31
2022-12-27T09:45:50.114Z,99664.75
2022-12-27T09:48:32.683Z,99649.88
2022-12-27T09:51:04.982Z,99667.34
2022-12-27T09:53:42.758Z,99666.31
2022-12-27T09:56:13.253Z,99620.66
2022-12-27T09:58:44.351Z,99670.13
2022-12-27T10:01:23.730Z,99664.94
2022-12-27T10:03:53.257Z,99670.03
2022-12-27T10:06:42.973Z,99678.59
2022-12-27T10:09:27.034Z,99675.66
2022-12-27T10:12:02.925Z,99623.28
2022-12-27T10:14:43.387Z,99672.63
2022-12-27T10:17:25.128Z,99668.41
2022-12-27T10:20:07.293Z,99664.28
2022-12-27T10:22:39.003Z,99672.97
2022-12-27T10:25:13.958Z,99666.59
2022-12-27T10:27:42.772Z,99669.72
2022-12-27T10:30:16.162Z,99661.75
2022-12-27T10:32:45.752Z,99682.00
2022-12-27T10:35:17.391Z,99676.16
2022-12-27T10:37:46.917Z,99674.53
2022-12-27T10:40:19.801Z,99665.84
2022-12-27T10:43:01.251Z,99667.56
2022-12-27T10:45:33.570Z,99674.34
2022-12-27T10:48:17.528Z,99628.72
2022-12-27T10:50:54.496Z,99662.13
2022-12-27T10:53:35.091Z,99663.16
2022-12-27T10:56:13.795Z,99657.50
2022-12-27T10:58:43.872Z,99665.31
2022-12-27T11:01:22.895Z,99677.78
2022-12-27T11:04:17.708Z,99671.44
2022-12-27T11:06:51.507Z,99675.41
2022-12-27T11:09:31.875Z,99670.41
2022-12-27T11:12:19.572Z,99677.66
2022-12-27T11:14:59.291Z,99679.94
2022-12-27T11:17:30.156Z,99676.38
2022-12-27T11:20:02.972Z,99668.84
2022-12-27T11:22:30.821Z,99672.88
2022-12-27T11:25:01.260Z,99679.75
2022-12-27T11:27:29.438Z,99680.44
2022-12-27T11:29:59.775Z,99686.41
2022-12-27T11:32:28.904Z,99680.63
2022-12-27T11:35:00.273Z,99687.22
2022-12-27T11:37:28.662Z,99683.91
2022-12-27T11:40:11.815Z,99667.50
2022-12-27T11:42:44.140Z,99674.72
2022-12-27T11:45:16.011Z,99656.38
2022-12-27T11:47:50.246Z,99644.50
2022-12-27T11:50:40.885Z,99692.31
2022-12-27T11:53:33.484Z,99687.03
2022-12-27T11:56:14.044Z,99685.63
2022-12-27T11:59:20.996Z,99695.84
2022-12-27T12:02:18.998Z,99662.69
2022-12-27T12:05:12.695Z,99699.38
2022-12-27T12:08:11.895Z,99702.34
2022-12-27T12:10:53.269Z,99696.69
2022-12-27T12:13:49.165Z,99711.28
2022-12-27T12:16:44.681Z,99718.41
2022-12-27T12:19:33.483Z,99725.69
2022-12-27T12:22:14.743Z,99733.44
2022-12-27T12:24:58.090Z,99735.16
2022-12-27T12:27:42.244Z,99730.19
2022-12-27T12:30:27.405Z,99741.81
2022-12-27T12:33:07.342Z,99739.16
2022-12-27T12:35:49.871Z,99736.88
2022-12-27T12:38:22.717Z,99743.84
2022-12-27T12:41:09.707Z,99738.88
2022-12-27T12:43:56.825Z,99756.91
2022-12-27T12:46:32.400Z,99753.75
2022-12-27T12:49:26.724Z,99764.19
2022-12-27T12:52:06.612Z,99724.31
2022-12-27T12:55:14.317Z,99765.47
2022-12-27T12:57:57.630Z,99761.47
2022-12-27T13:00:38.821Z,99769.13
2022-12-27T13:03:34.348Z,99775.72
2022-12-27T13:06:09.283Z,99779.00
2022-12-27T13:08:44.616Z,99785.75
2022-12-27T13:11:30.143Z,99788.44
2022-12-27T13:14:14.616Z,99785.59
2022-12-27T13:16:55.694Z,99787.38
2022-12-27T13:19:42.323Z,99775.78
2022-12-27T13:22:17.508Z,99772.06
2022-12-27T13:25:01.883Z,99782.44
2022-12-27T13:27:38.028Z,99777.47
2022-12-27T13:30:17.709Z,99787.94
2022-12-27T13:33:05.241Z,99804.38
2022-12-27T13:35:48.718Z,99792.47
2022-12-27T13:38:33.182Z,99801.53
2022-12-27T13:41:13.751Z,99777.56
2022-12-27T13:43:57.056Z,99783.94
2022-12-27T13:46:49.719Z,99815.94
2022-12-27T13:49:43.143Z,99818.25
2022-12-27T13:52:24.472Z,99819.38
2022-12-27T13:55:22.066Z,99821.25
2022-12-27T13:58:18.775Z,99827.81
2022-12-27T14:00:53.588Z,99826.75
2022-12-27T14:03:48.146Z,99836.41
2022-12-27T14:06:51.141Z,99837.34
2022-12-27T14:09:40.500Z,99844.34
2022-12-27T14:12:41.738Z,99852.28
2022-12-27T14:15:15.784Z,99849.50
2022-12-27T14:17:51.675Z,99871.84
2022-12-27T14:20:51.694Z,99852.16
2022-12-27T14:23:41.887Z,99853.44
2022-12-27T14:26:35.758Z,99854.13
2022-12-27T14:29:28.544Z,99869.56
2022-12-27T14:32:43.940Z,99867.03
2022-12-27T14:35:49.968Z,99888.13
2022-12-27T14:38:43.240Z,99885.88
2022-12-27T14:41:54.682Z,99885.84
2022-12-27T14:44:52.354Z,99879.34
2022-12-27T14:47:51.016Z,99898.69
2022-12-27T14:50:46.274Z,99902.31
2022-12-27T14:53:45.079Z,99905.41
2022-12-27T14:56:25.308Z,99911.13
2022-12-27T14:59:05.337Z,99910.25
2022-12-27T15:01:46.500Z,99921.06
2022-12-27T15:04:54.437Z,99927.25
2022-12-27T15:07:54.619Z,99928.75
2022-12-27T15:10:51.077Z,99897.06
2022-12-27T15:13:27.567Z,99928.72
2022-12-27T15:16:11.608Z,99930.44
2022-12-27T15:18:59.757Z,99937.47
2022-12-27T15:21:49.940Z,99948.66
2022-12-27T15:24:29.811Z,99952.66
2022-12-27T15:27:07.871Z,99949.50
2022-12-27T15:29:51.652Z,99931.69
2022-12-27T15:32:33.482Z,99968.00
2022-12-27T15:35:17.551Z,99968.78
2022-12-27T15:37:53.536Z,99940.72
2022-12-27T15:40:47.857Z,99950.91
2022-12-27T15:43:59.649Z,99976.84
2022-12-27T15:46:54.271Z,99973.97
2022-12-27T15:49:38.630Z,99991.69
2022-12-27T15:52:16.222Z,99974.50
2022-12-27T15:55:06.650Z,100005.78
2022-12-27T15:57:49.541Z,100014.84
2022-12-27T16:00:28.697Z,100004.03
2022-12-27T16:03:02.646Z,100011.63
2022-12-27T16:05:48.713Z,100023.50
2022-12-27T16:08:27.083Z,100031.38
2022-12-27T16:10:56.146Z,100029.72
2022-12-27T16:13:49.317Z,100033.78
2022-12-27T16:16:56.995Z,100037.53
2022-12-27T16:19:54.955Z,100048.09
2022-12-27T16:22:29.194Z,100048.31
2022-12-27T16:24:57.923Z,100050.19
2022-12-27T16:27:32.306Z,100048.97
2022-12-27T16:30:00.613Z,100058.47
2022-12-27T16:32:29.311Z,100060.84
2022-12-27T16:35:13.488Z,100035.22
2022-12-27T16:37:45.750Z,100066.75
2022-12-27T16:40:42.247Z,100081.44
2022-12-27T16:43:46.532Z,100072.31
2022-12-27T16:46:27.884Z,100080.97
2022-12-27T16:49:24.717Z,100088.22
2022-12-27T16:52:06.620Z,100098.59
2022-12-27T16:54:49.606Z,100066.38
2022-12-27T16:57:35.255Z,100100.22
2022-12-27T17:00:06.517Z,100107.13
2022-12-27T17:02:41.878Z,100103.84
2022-12-27T17:05:36.999Z,100117.28
2022-12-27T17:08:16.581Z,100127.66
2022-12-27T17:10:56.582Z,100134.41
2022-12-27T17:13:39.823Z,100136.94
2022-12-27T17:16:16.212Z,100135.13
2022-12-27T17:18:49.127Z,100144.53
2022-12-27T17:21:29.493Z,100157.50
2022-12-27T17:24:02.624Z,100152.22
2022-12-27T17:26:58.155Z,100140.50
2022-12-27T17:29:52.668Z,100139.75
2022-12-27T17:32:34.783Z,100182.06
2022-12-27T17:35:12.447Z,100163.41
2022-12-27T17:37:48.747Z,100156.88
2022-12-27T17:40:32.708Z,100184.56
2022-12-27T17:43:30.580Z,100196.66
2022-12-27T17:46:13.838Z,100195.59
2022-12-27T17:48:42.969Z,100148.84
2022-12-27T17:51:14.557Z,100203.38
2022-12-27T17:54:04.543Z,100191.72
2022-12-27T17:57:01.885Z,100205.13
2022-12-27T17:59:31.547Z,100212.66
2022-12-27T18:02:06.157Z,100195.13
2022-12-27T18:04:37.156Z,100222.25
2022-12-27T18:07:07.382Z,100221.47
2022-12-27T18:09:39.684Z,100219.72
2022-12-27T18:12:15.332Z,100218.88
2022-12-27T18:14:44.116Z,100206.47
2022-12-27T18:17:29.004Z,100245.97
2022-12-27T18:19:57.463Z,100242.63
2022-12-27T18:22:25.452Z,100246.97
2022-12-27T18:24:53.278Z,100248.56
2022-12-27T18:27:26.303Z,100254.72
2022-12-27T18:29:54.236Z,100258.22
2022-12-27T18:32:26.354Z,100262.50
2022-12-27T18:34:58.234Z,100243.09
2022-12-27T18:37:27.141Z,100263.22
2022-12-27T18:39:57.476Z,100268.38
2022-12-27T18:42:30.902Z,100264.97
2022-12-27T18:45:03.195Z,100243.75
2022-12-27T18:47:31.458Z,100254.13
2022-12-27T18:50:01.736Z,100259.31
2022-12-27T18:52:34.800Z,100286.38
2022-12-27T18:55:17.005Z,100288.91
2022-12-27T18:57:46.868Z,100255.06
2022-12-27T19:00:19.560Z,100288.84
2022-12-27T19:02:47.476Z,100299.03
2022-12-27T19:05:30.135Z,100298.19
2022-12-27T19:08:11.685Z,100294.72
2022-12-27T19:10:47.279Z,100266.19
2022-12-27T19:13:23.117Z,100299.06
2022-12-27T19:15:51.905Z,100300.63
2022-12-27T19:18:26.240Z,100309.25
2022-12-27T19:20:57.570Z,100288.09
2022-12-27T19:23:29.372Z,100321.91
2022-12-27T19:26:04.558Z,100323.56
2022-12-27T19:28:36.054Z,100327.88
2022-12-27T19:31:17.587Z,100326.25
2022-12-27T19:33:49.180Z,100334.75
2022-12-27T19:36:17.355Z,100343.34
2022-12-27T19:38:48.074Z,100349.38
2022-12-27T19:41:16.254Z,100349.28
2022-12-27T19:43:47.143Z,100343.47
2022-12-27T19:46:15.560Z,100358.03
2022-12-27T19:48:43.918Z,100352.97
2022-12-27T19:51:16.479Z,100314.16
2022-12-27T19:53:48.971Z,100363.00
2022-12-27T19:56:18.175Z,100344.41
2022-12-27T19:58:48.501Z,100363.06
2022-12-27T20:01:16.282Z,100371.75
2022-12-27T20:03:44.057Z,100376.66
2022-12-27T20:06:22.818Z,100387.50
2022-12-27T20:08:54.381Z,100381.69
2022-12-27T20:11:23.770Z,100397.00
2022-12-27T20:13:52.968Z,100391.88
2022-12-27T20:16:21.676Z,100396.13
2022-12-27T20:18:49.585Z,100397.09
2022-12-27T20:21:18.995Z,100400.38
2022-12-27T20:23:47.699Z,100389.41
2022-12-27T20:26:20.276Z,100390.91
2022-12-27T20:28:48.720Z,100395.47
2022-12-27T20:31:20.787Z,100404.72
2022-12-27T20:33:52.099Z,100415.69
2022-12-27T20:36:20.051Z,100421.72
2022-12-27T20:38:47.803Z,100422.63
2022-12-27T20:41:17.547Z,100425.28
2022-12-27T20:43:45.684Z,100433.56
2022-12-27T20:46:15.431Z,100433.66
2022-12-27T20:48:46.440Z,100437.84
2022-12-27T20:51:41.952Z,100451.38
2022-12-27T20:54:13.372Z,100458.16
2022-12-27T20:56:41.140Z,100450.63
2022-12-27T20:59:08.907Z,100449.78
2022-12-27T21:01:37.533Z,100459.94
2022-12-27T21:04:07.474Z,100459.97
2022-12-27T21:06:35.197Z,100468.25
2022-12-27T21:09:03.134Z,100465.06
2022-12-27T21:11:32.409Z,100465.97
2022-12-27T21:14:01.475Z,100470.84
2022-12-27T21:16:31.143Z,100476.03
2022-12-27T21:19:02.841Z,100480.41
2022-12-27T21:21:33.384Z,100478.63
2022-12-27T21:24:01.236Z,100483.56
2022-12-27T21:26:31.117Z,100482.09
2022-12-27T21:28:59.891Z,100484.59
2022-12-27T21:31:28.323Z,100478.53
2022-12-27T21:33:56.406Z,100491.38
2022-12-27T21:36:25.592Z,100496.50
2022-12-27T21:38:55.968Z,100493.94
2022-12-27T21:41:26.098Z,100496.44
2022-12-27T21:43:54.112Z,100490.50
2022-12-27T21:46:23.569Z,100505.84
2022-12-27T21:48:56.088Z,100504.03
2022-12-27T21:51:24.389Z,100510.91
2022-12-27T21:53:53.915Z,100522.75
2022-12-27T21:56:22.413Z,100522.84
2022-12-27T21:58:51.290Z,100516.88
2022-12-27T22:01:22.024Z,100507.56
2022-12-27T22:03:52.016Z,100511.75
2022-12-27T22:06:22.077Z,100513.53
2022-12-27T22:08:51.779Z,100514.31
2022-12-27T22:11:22.474Z,100525.44
2022-12-27T22:13:50.567Z,100484.09
2022-12-27T22:16:20.729Z,100524.63
2022-12-27T22:18:49.635Z,100532.94
2022-12-27T22:21:20.828Z,100541.38
2022-12-27T22:23:51.196Z,100543.91
2022-12-27T22:26:22.520Z,100546.47
2022-12-27T22:28:50.711Z,100552.41
2022-12-27T22:31:20.603Z,100551.56
2022-12-27T22:33:49.777Z,100521.25
2022-12-27T22:36:29.899Z,100558.41
2022-12-27T22:38:58.607Z,100513.63
2022-12-27T22:41:29.744Z,100546.56
2022-12-27T22:43:59.466Z,100544.00
2022-12-27T22:46:28.434Z,100557.66
2022-12-27T22:48:58.954Z,100555.13
2022-12-27T22:51:27.491Z,100558.41
2022-12-27T22:53:55.755Z,100561.91
2022-12-27T22:56:25.310Z,100552.53
2022-12-27T22:58:54.759Z,100558.53
2022-12-27T23:01:25.335Z,100549.16
2022-12-27T23:03:53.253Z,100531.41
2022-12-27T23:06:21.325Z,100551.78
2022-12-27T23:08:49.908Z,100519.75
2022-12-27T23:11:19.967Z,100554.34
2022-12-27T23:13:48.342Z,100567.88
2022-12-27T23:16:17.521Z,100570.25
2022-12-27T23:18:45.367Z,100572.03
2022-12-27T23:21:20.656Z,100573.78
2022-12-27T23:23:52.592Z,100556.97
2022-12-27T23:26:22.543Z,100572.16
2022-12-27T23:28:51.755Z,100581.44
2022-12-27T23:31:22.385Z,100565.41
2022-12-27T23:33:50.439Z,100583.19
2022-12-27T23:36:18.793Z,100598.41
2022-12-27T23:38:46.727Z,100596.75
2022-12-27T23:41:16.708Z,100599.28
2022-12-27T23:43:53.727Z,100593.34
2022-12-27T23:46:27.424Z,100594.19
2022-12-27T23:48:56.183Z,100594.22
2022-12-27T23:51:24.203Z,100581.53
2022-12-27T23:53:52.362Z,100573.06
2022-12-27T23:56:22.385Z,100612.84
2022-12-27T23:58:52.375Z,100605.22
